sensor_id;sensor_type;location;lat;lon;timestamp;pressure;altitude;pressure_sealevel;temperature;humidity
9141;BME280;46330;50.822;7.126;2023-11-19T00:00:24;100457.31;;;9.49;100.00
9141;BME280;46330;50.822;7.126;2023-11-19T00:02:51;100453.78;;;9.51;100.00
9141;BME280;46330;50.822;7.126;2023-11-19T00:05:19;100455.50;;;9.52;100.00
9141;BME280;46330;50.822;7.126;2023-11-19T00:07:47;100448.50;;;9.53;100.00
9141;BME280;46330;50.822;7.126;2023-11-19T00:10:17;100453.72;;;9.53;100.00
9141;BME280;46330;50.822;7.126;2023-11-19T00:12:49;100441.59;;;9.52;100.00
9141;BME280;46330;50.822;7.126;2023-11-19T00:15:18;100445.94;;;9.51;100.00
9141;BME280;46330;50.822;7.126;2023-11-19T00:17:47;100427.66;;;9.51;100.00
9141;BME280;46330;50.822;7.126;2023-11-19T00:20:17;100426.78;;;9.51;100.00
9141;BME280;46330;50.822;7.126;2023-11-19T00:22:46;100424.22;;;9.49;100.00
9141;BME280;46330;50.822;7.126;2023-11-19T00:25:18;100420.72;;;9.50;100.00
9141;BME280;46330;50.822;7.126;2023-11-19T00:27:48;100426.84;;;9.49;100.00
9141;BME280;46330;50.822;7.126;2023-11-19T00:30:17;100418.09;;;9.50;100.00
9141;BME280;46330;50.822;7.126;2023-11-19T00:32:45;100402.44;;;9.50;100.00
9141;BME280;46330;50.822;7.126;2023-11-19T00:35:13;100402.41;;;9.52;100.00
9141;BME280;46330;50.822;7.126;2023-11-19T00:37:42;100412.81;;;9.53;100.00
9141;BME280;46330;50.822;7.126;2023-11-19T00:40:12;100407.59;;;9.55;100.00
9141;BME280;46330;50.822;7.126;2023-11-19T00:42:43;100403.22;;;9.55;100.00
9141;BME280;46330;50.822;7.126;2023-11-19T00:45:12;100408.41;;;9.57;100.00
9141;BME280;46330;50.822;7.126;2023-11-19T00:47:41;100410.13;;;9.58;100.00
9141;BME280;46330;50.822;7.126;2023-11-19T00:50:10;100410.13;;;9.58;100.00
9141;BME280;46330;50.822;7.126;2023-11-19T00:52:39;100403.22;;;9.55;100.00
9141;BME280;46330;50.822;7.126;2023-11-19T00:55:07;100414.50;;;9.57;100.00
9141;BME280;46330;50.822;7.126;2023-11-19T00:57:35;100415.34;;;9.58;100.00
9141;BME280;46330;50.822;7.126;2023-11-19T01:00:04;100414.44;;;9.59;100.00
9141;BME280;46330;50.822;7.126;2023-11-19T01:02:43;100394.47;;;9.56;100.00
9141;BME280;46330;50.822;7.126;2023-11-19T01:05:11;100382.34;;;9.55;100.00
9141;BME280;46330;50.822;7.126;2023-11-19T01:07:42;100376.25;;;9.55;100.00
9141;BME280;46330;50.822;7.126;2023-11-19T01:10:10;100380.56;;;9.57;100.00
9141;BME280;46330;50.822;7.126;2023-11-19T01:12:38;100380.50;;;9.60;100.00
9141;BME280;46330;50.822;7.126;2023-11-19T01:15:06;100383.84;;;9.65;100.00
9141;BME280;46330;50.822;7.126;2023-11-19T01:17:36;100386.47;;;9.65;100.00
9141;BME280;46330;50.822;7.126;2023-11-19T01:20:07;100384.66;;;9.69;100.00
9141;BME280;46330;50.822;7.126;2023-11-19T01:22:39;100384.59;;;9.72;100.00
9141;BME280;46330;50.822;7.126;2023-11-19T01:25:07;100391.50;;;9.74;100.00
9141;BME280;46330;50.822;7.126;2023-11-19T01:27:35;100402.75;;;9.78;100.00
9141;BME280;46330;50.822;7.126;2023-11-19T01:30:06;100394.03;;;9.81;100.00
9141;BME280;46330;50.822;7.126;2023-11-19T01:32:36;100386.13;;;9.84;100.00
9141;BME280;46330;50.822;7.126;2023-11-19T01:35:06;100386.09;;;9.85;100.00
9141;BME280;46330;50.822;7.126;2023-11-19T01:37:35;100389.56;;;9.86;100.00
9141;BME280;46330;50.822;7.126;2023-11-19T01:40:03;100381.69;;;9.87;100.00
9141;BME280;46330;50.822;7.126;2023-11-19T01:42:36;100389.50;;;9.87;100.00
9141;BME280;46330;50.822;7.126;2023-11-19T01:45:05;100391.22;;;9.90;100.00
9141;BME280;46330;50.822;7.126;2023-11-19T01:47:34;100398.19;;;9.89;100.00
9141;BME280;46330;50.822;7.126;2023-11-19T01:50:07;100400.75;;;9.91;100.00
9141;BME280;46330;50.822;7.126;2023-11-19T01:52:35;100405.09;;;9.92;100.00
9141;BME280;46330;50.822;7.126;2023-11-19T01:55:05;100396.34;;;9.94;100.00
9141;BME280;46330;50.822;7.126;2023-11-19T01:57:35;100397.22;;;9.93;100.00
9141;BME280;46330;50.822;7.126;2023-11-19T02:00:07;100398.16;;;9.91;100.00
9141;BME280;46330;50.822;7.126;2023-11-19T02:02:39;100396.41;;;9.91;100.00
9141;BME280;46330;50.822;7.126;2023-11-19T02:05:10;100385.00;;;9.95;100.00
9141;BME280;46330;50.822;7.126;2023-11-19T02:07:39;100385.81;;;9.97;100.00
9141;BME280;46330;50.822;7.126;2023-11-19T02:10:07;100384.06;;;9.98;100.00
9141;BME280;46330;50.822;7.126;2023-11-19T02:12:40;100410.19;;;9.99;100.00
9141;BME280;46330;50.822;7.126;2023-11-19T02:15:10;100393.66;;;9.99;100.00
9141;BME280;46330;50.822;7.126;2023-11-19T02:17:38;100386.72;;;9.96;100.00
9141;BME280;46330;50.822;7.126;2023-11-19T02:20:09;100375.44;;;9.96;100.00
9141;BME280;46330;50.822;7.126;2023-11-19T02:22:39;100375.38;;;9.97;100.00
9141;BME280;46330;50.822;7.126;2023-11-19T02:25:09;100362.31;;;9.97;100.00
9141;BME280;46330;50.822;7.126;2023-11-19T02:27:46;100376.25;;;9.98;100.00
9141;BME280;46330;50.822;7.126;2023-11-19T02:30:15;100357.94;;;9.98;100.00
9141;BME280;46330;50.822;7.126;2023-11-19T02:32:43;100355.34;;;9.96;100.00
9141;BME280;46330;50.822;7.126;2023-11-19T02:35:11;100344.94;;;9.95;100.00
9141;BME280;46330;50.822;7.126;2023-11-19T02:37:38;100366.66;;;9.97;100.00
9141;BME280;46330;50.822;7.126;2023-11-19T02:40:07;100361.44;;;9.98;100.00
9141;BME280;46330;50.822;7.126;2023-11-19T02:42:36;100358.81;;;9.98;100.00
9141;BME280;46330;50.822;7.126;2023-11-19T02:45:08;100355.34;;;9.98;100.00
9141;BME280;46330;50.822;7.126;2023-11-19T02:47:40;100355.31;;;9.99;100.00
9141;BME280;46330;50.822;7.126;2023-11-19T02:50:09;100352.72;;;9.99;100.00
9141;BME280;46330;50.822;7.126;2023-11-19T02:52:41;100357.06;;;9.99;100.00
9141;BME280;46330;50.822;7.126;2023-11-19T02:55:10;100355.34;;;9.98;100.00
9141;BME280;46330;50.822;7.126;2023-11-19T02:57:39;100336.19;;;9.97;100.00
9141;BME280;46330;50.822;7.126;2023-11-19T03:00:14;100339.69;;;9.96;100.00
9141;BME280;46330;50.822;7.126;2023-11-19T03:02:43;100335.38;;;9.94;100.00
9141;BME280;46330;50.822;7.126;2023-11-19T03:05:13;100321.47;;;9.93;100.00
9141;BME280;46330;50.822;7.126;2023-11-19T03:07:42;100319.75;;;9.92;100.00
9141;BME280;46330;50.822;7.126;2023-11-19T03:10:13;100330.28;;;9.89;100.00
9141;BME280;46330;50.822;7.126;2023-11-19T03:12:42;100336.38;;;9.90;100.00
9141;BME280;46330;50.822;7.126;2023-11-19T03:15:10;100332.91;;;9.88;100.00
9141;BME280;46330;50.822;7.126;2023-11-19T03:17:41;100324.13;;;9.90;100.00
9141;BME280;46330;50.822;7.126;2023-11-19T03:20:10;100330.16;;;9.94;100.00
9141;BME280;46330;50.822;7.126;2023-11-19T03:22:42;100336.22;;;9.96;100.00
9141;BME280;46330;50.822;7.126;2023-11-19T03:25:10;100328.41;;;9.96;100.00
9141;BME280;46330;50.822;7.126;2023-11-19T03:27:39;100334.44;;;9.96;100.00
9141;BME280;46330;50.822;7.126;2023-11-19T03:30:09;100329.22;;;9.98;100.00
9141;BME280;46330;50.822;7.126;2023-11-19T03:32:37;100321.53;;;9.90;100.00
9141;BME280;46330;50.822;7.126;2023-11-19T03:35:07;100323.16;;;9.96;100.00
9141;BME280;46330;50.822;7.126;2023-11-19T03:37:35;100317.88;;;9.99;100.00
9141;BME280;46330;50.822;7.126;2023-11-19T03:40:05;100318.75;;;9.99;100.00
9141;BME280;46330;50.822;7.126;2023-11-19T03:42:33;100326.63;;;9.96;100.00
9141;BME280;46330;50.822;7.126;2023-11-19T03:45:01;100329.38;;;9.90;100.00
9141;BME280;46330;50.822;7.126;2023-11-19T03:47:30;100316.22;;;9.93;100.00
9141;BME280;46330;50.822;7.126;2023-11-19T03:49:58;100326.72;;;9.92;100.00
9141;BME280;46330;50.822;7.126;2023-11-19T03:52:28;100317.41;;;9.80;100.00
9141;BME280;46330;50.822;7.126;2023-11-19T03:54:56;100322.53;;;9.85;100.00
9141;BME280;46330;50.822;7.126;2023-11-19T03:57:24;100326.88;;;9.86;100.00
9141;BME280;46330;50.822;7.126;2023-11-19T03:59:52;100321.66;;;9.84;100.00
9141;BME280;46330;50.822;7.126;2023-11-19T04:02:20;100324.25;;;9.86;100.00
9141;BME280;46330;50.822;7.126;2023-11-19T04:04:47;100325.06;;;9.88;100.00
9141;BME280;46330;50.822;7.126;2023-11-19T04:07:15;100332.97;;;9.85;100.00
9141;BME280;46330;50.822;7.126;2023-11-19T04:09:45;100331.97;;;9.90;100.00
9141;BME280;46330;50.822;7.126;2023-11-19T04:12:13;100335.56;;;9.86;100.00
9141;BME280;46330;50.822;7.126;2023-11-19T04:14:41;100337.25;;;9.89;100.00
9141;BME280;46330;50.822;7.126;2023-11-19T04:17:11;100338.03;;;9.92;100.00
9141;BME280;46330;50.822;7.126;2023-11-19T04:19:39;100332.75;;;9.95;100.00
9141;BME280;46330;50.822;7.126;2023-11-19T04:22:08;100332.56;;;10.03;100.00
9141;BME280;46330;50.822;7.126;2023-11-19T04:24:36;100325.44;;;10.11;100.00
9141;BME280;46330;50.822;7.126;2023-11-19T04:27:06;100333.19;;;10.17;100.00
9141;BME280;46330;50.822;7.126;2023-11-19T04:29:34;100323.53;;;10.19;100.00
9141;BME280;46330;50.822;7.126;2023-11-19T04:32:02;100321.78;;;10.21;100.00
9141;BME280;46330;50.822;7.126;2023-11-19T04:34:32;100326.88;;;10.25;100.00
9141;BME280;46330;50.822;7.126;2023-11-19T04:37:00;100333.81;;;10.27;100.00
9141;BME280;46330;50.822;7.126;2023-11-19T04:39:32;100329.34;;;10.32;100.00
9141;BME280;46330;50.822;7.126;2023-11-19T04:42:00;100331.72;;;10.42;100.00
9141;BME280;46330;50.822;7.126;2023-11-19T04:44:30;100319.44;;;10.46;100.00
9141;BME280;46330;50.822;7.126;2023-11-19T04:46:58;100331.56;;;10.48;100.00
9141;BME280;46330;50.822;7.126;2023-11-19T04:49:27;100340.00;;;10.59;100.00
9141;BME280;46330;50.822;7.126;2023-11-19T04:51:55;100339.00;;;10.65;100.00
9141;BME280;46330;50.822;7.126;2023-11-19T04:54:23;100338.78;;;10.74;100.00
9141;BME280;46330;50.822;7.126;2023-11-19T04:56:51;100345.63;;;10.79;100.00
9141;BME280;46330;50.822;7.126;2023-11-19T04:59:19;100355.00;;;10.87;100.00
9141;BME280;46330;50.822;7.126;2023-11-19T05:01:48;100355.84;;;10.89;100.00
9141;BME280;46330;50.822;7.126;2023-11-19T05:04:17;100349.75;;;10.90;100.00
9141;BME280;46330;50.822;7.126;2023-11-19T05:06:46;100355.63;;;10.98;100.00
9141;BME280;46330;50.822;7.126;2023-11-19T05:09:14;100352.16;;;10.97;100.00
9141;BME280;46330;50.822;7.126;2023-11-19T05:11:42;100343.69;;;11.20;100.00
9141;BME280;46330;50.822;7.126;2023-11-19T05:14:13;100342.19;;;11.11;100.00
9141;BME280;46330;50.822;7.126;2023-11-19T05:16:42;100358.97;;;11.03;100.00
9141;BME280;46330;50.822;7.126;2023-11-19T05:19:11;100359.13;;;10.97;100.00
9141;BME280;46330;50.822;7.126;2023-11-19T05:21:41;100368.56;;;11.02;100.00
9141;BME280;46330;50.822;7.126;2023-11-19T05:24:10;100371.16;;;11.04;100.00
9141;BME280;46330;50.822;7.126;2023-11-19T05:26:39;100364.38;;;10.97;100.00
9141;BME280;46330;50.822;7.126;2023-11-19T05:29:07;100365.00;;;11.06;100.00
9141;BME280;46330;50.822;7.126;2023-11-19T05:31:35;100366.78;;;11.04;100.00
9141;BME280;46330;50.822;7.126;2023-11-19T05:34:05;100363.25;;;11.05;100.00
9141;BME280;46330;50.822;7.126;2023-11-19T05:36:35;100358.72;;;11.12;100.00
9141;BME280;46330;50.822;7.126;2023-11-19T05:39:03;100350.06;;;11.10;100.00
9141;BME280;46330;50.822;7.126;2023-11-19T05:41:31;100345.88;;;11.04;100.00
9141;BME280;46330;50.822;7.126;2023-11-19T05:43:59;100355.16;;;11.16;100.00
9141;BME280;46330;50.822;7.126;2023-11-19T05:46:28;100361.56;;;11.04;100.00
9141;BME280;46330;50.822;7.126;2023-11-19T05:48:56;100360.81;;;10.99;100.00
9141;BME280;46330;50.822;7.126;2023-11-19T05:51:24;100363.41;;;10.99;100.00
9141;BME280;46330;50.822;7.126;2023-11-19T05:53:54;100366.25;;;10.92;100.00
9141;BME280;46330;50.822;7.126;2023-11-19T05:56:22;100366.81;;;11.03;100.00
9141;BME280;46330;50.822;7.126;2023-11-19T05:58:51;100363.34;;;11.02;100.00
9141;BME280;46330;50.822;7.126;2023-11-19T06:01:19;100360.84;;;10.98;100.00
9141;BME280;46330;50.822;7.126;2023-11-19T06:03:47;100362.88;;;10.87;100.00
9141;BME280;46330;50.822;7.126;2023-11-19T06:06:17;100354.34;;;10.78;100.00
9141;BME280;46330;50.822;7.126;2023-11-19T06:08:45;100374.34;;;10.81;100.00
9141;BME280;46330;50.822;7.126;2023-11-19T06:11:15;100375.19;;;10.83;100.00
9141;BME280;46330;50.822;7.126;2023-11-19T06:13:45;100371.88;;;10.76;100.00
9141;BME280;46330;50.822;7.126;2023-11-19T06:16:14;100388.44;;;10.75;100.00
9141;BME280;46330;50.822;7.126;2023-11-19T06:18:42;100380.72;;;10.71;100.00
9141;BME280;46330;50.822;7.126;2023-11-19T06:21:11;100382.41;;;10.72;100.00
9141;BME280;46330;50.822;7.126;2023-11-19T06:23:39;100384.94;;;10.76;100.00
9141;BME280;46330;50.822;7.126;2023-11-19T06:26:07;100375.41;;;10.74;100.00
9141;BME280;46330;50.822;7.126;2023-11-19T06:28:37;100383.22;;;10.75;100.00
9141;BME280;46330;50.822;7.126;2023-11-19T06:31:05;100382.13;;;10.84;100.00
9141;BME280;46330;50.822;7.126;2023-11-19T06:33:33;100382.97;;;10.86;100.00
9141;BME280;46330;50.822;7.126;2023-11-19T06:36:01;100384.63;;;10.89;100.00
9141;BME280;46330;50.822;7.126;2023-11-19T06:38:29;100384.50;;;10.93;100.00
9141;BME280;46330;50.822;7.126;2023-11-19T06:40:57;100401.06;;;10.94;100.00
9141;BME280;46330;50.822;7.126;2023-11-19T06:43:25;100400.25;;;10.92;100.00
9141;BME280;46330;50.822;7.126;2023-11-19T06:46:15;100403.84;;;10.88;100.00
9141;BME280;46330;50.822;7.126;2023-11-19T06:48:44;100403.84;;;10.88;100.00
9141;BME280;46330;50.822;7.126;2023-11-19T06:51:12;100407.31;;;10.88;100.00
9141;BME280;46330;50.822;7.126;2023-11-19T06:53:40;100407.47;;;10.82;100.00
9141;BME280;46330;50.822;7.126;2023-11-19T06:56:18;100418.88;;;10.79;100.00
9141;BME280;46330;50.822;7.126;2023-11-19T06:58:46;100408.41;;;10.79;100.00
9141;BME280;46330;50.822;7.126;2023-11-19T07:01:17;100411.91;;;10.78;100.00
9141;BME280;46330;50.822;7.126;2023-11-19T07:03:45;100418.91;;;10.78;100.00
9141;BME280;46330;50.822;7.126;2023-11-19T07:06:14;100402.06;;;10.90;100.00
9141;BME280;46330;50.822;7.126;2023-11-19T07:08:42;100398.31;;;11.00;100.00
9141;BME280;46330;50.822;7.126;2023-11-19T07:11:12;100402.66;;;11.01;100.00
9141;BME280;46330;50.822;7.126;2023-11-19T07:13:40;100400.97;;;10.98;100.00
9141;BME280;46330;50.822;7.126;2023-11-19T07:16:09;100405.75;;;11.16;100.00
9141;BME280;46330;50.822;7.126;2023-11-19T07:18:39;100406.63;;;11.15;100.00
9141;BME280;46330;50.822;7.126;2023-11-19T07:21:08;100407.56;;;11.13;100.00
9141;BME280;46330;50.822;7.126;2023-11-19T07:23:37;100412.09;;;11.06;100.00
9141;BME280;46330;50.822;7.126;2023-11-19T07:26:06;100403.44;;;11.04;100.00
9141;BME280;46330;50.822;7.126;2023-11-19T07:28:36;100387.91;;;10.97;100.00
9141;BME280;46330;50.822;7.126;2023-11-19T07:31:04;100406.38;;;10.92;100.00
9141;BME280;46330;50.822;7.126;2023-11-19T07:33:34;100418.81;;;10.83;100.00
9141;BME280;46330;50.822;7.126;2023-11-19T07:36:04;100419.53;;;10.89;100.00
9141;BME280;46330;50.822;7.126;2023-11-19T07:38:34;100430.94;;;10.85;100.00
9141;BME280;46330;50.822;7.126;2023-11-19T07:41:02;100422.06;;;10.92;100.00
9141;BME280;46330;50.822;7.126;2023-11-19T07:43:32;100443.81;;;10.94;100.00
9141;BME280;46330;50.822;7.126;2023-11-19T07:46:00;100442.78;;;11.00;100.00
9141;BME280;46330;50.822;7.126;2023-11-19T07:48:28;100453.25;;;11.00;100.00
9141;BME280;46330;50.822;7.126;2023-11-19T07:50:56;100447.22;;;10.98;100.00
9141;BME280;46330;50.822;7.126;2023-11-19T07:53:25;100451.63;;;10.96;100.00
9141;BME280;46330;50.822;7.126;2023-11-19T07:55:53;100448.19;;;10.94;100.00
9141;BME280;46330;50.822;7.126;2023-11-19T07:58:21;100454.34;;;10.91;100.00
9141;BME280;46330;50.822;7.126;2023-11-19T08:00:49;100455.22;;;10.92;100.00
9141;BME280;46330;50.822;7.126;2023-11-19T08:03:17;100456.19;;;11.23;100.00
9141;BME280;46330;50.822;7.126;2023-11-19T08:05:45;100460.72;;;11.16;100.00
9141;BME280;46330;50.822;7.126;2023-11-19T08:08:13;100466.91;;;11.12;100.00
9141;BME280;46330;50.822;7.126;2023-11-19T08:10:43;100463.44;;;11.12;100.00
9141;BME280;46330;50.822;7.126;2023-11-19T08:13:12;100480.78;;;11.17;100.00
9141;BME280;46330;50.822;7.126;2023-11-19T08:15:47;100463.91;;;11.29;100.00
9141;BME280;46330;50.822;7.126;2023-11-19T08:18:16;100477.78;;;11.32;100.00
9141;BME280;46330;50.822;7.126;2023-11-19T08:20:45;100473.13;;;11.44;100.00
9141;BME280;46330;50.822;7.126;2023-11-19T08:23:16;100472.78;;;11.56;100.00
9141;BME280;46330;50.822;7.126;2023-11-19T08:25:46;100480.50;;;11.62;100.00
9141;BME280;46330;50.822;7.126;2023-11-19T08:28:14;100477.75;;;12.00;100.00
9141;BME280;46330;50.822;7.126;2023-11-19T08:30:43;100481.44;;;12.24;100.00
9141;BME280;46330;50.822;7.126;2023-11-19T08:33:11;100476.88;;;12.30;100.00
9141;BME280;46330;50.822;7.126;2023-11-19T08:35:39;100487.38;;;12.60;99.73
9141;BME280;46330;50.822;7.126;2023-11-19T08:38:07;100490.41;;;12.75;99.54
9141;BME280;46330;50.822;7.126;2023-11-19T08:40:35;100490.25;;;12.80;97.81
9141;BME280;46330;50.822;7.126;2023-11-19T08:43:05;100489.50;;;12.76;97.16
9141;BME280;46330;50.822;7.126;2023-11-19T08:45:33;100493.13;;;13.00;95.33
9141;BME280;46330;50.822;7.126;2023-11-19T08:48:01;100492.72;;;13.14;93.64
9141;BME280;46330;50.822;7.126;2023-11-19T08:50:29;100500.31;;;13.49;93.24
9141;BME280;46330;50.822;7.126;2023-11-19T08:52:57;100495.31;;;13.41;89.64
9141;BME280;46330;50.822;7.126;2023-11-19T08:55:25;100504.03;;;13.68;90.01
9141;BME280;46330;50.822;7.126;2023-11-19T08:57:54;100498.34;;;13.56;88.95
9141;BME280;46330;50.822;7.126;2023-11-19T09:00:23;100496.94;;;13.70;87.61
9141;BME280;46330;50.822;7.126;2023-11-19T09:02:51;100492.66;;;13.68;85.79
9141;BME280;46330;50.822;7.126;2023-11-19T09:05:19;100486.28;;;13.99;87.86
9141;BME280;46330;50.822;7.126;2023-11-19T09:07:48;100496.25;;;13.90;86.86
9141;BME280;46330;50.822;7.126;2023-11-19T09:10:16;100496.31;;;14.13;84.79
9141;BME280;46330;50.822;7.126;2023-11-19T09:12:44;100499.34;;;13.76;83.14
9141;BME280;46330;50.822;7.126;2023-11-19T09:15:12;100497.34;;;13.84;85.16
9141;BME280;46330;50.822;7.126;2023-11-19T09:17:42;100506.28;;;14.28;84.32
9141;BME280;46330;50.822;7.126;2023-11-19T09:20:11;100504.78;;;14.46;82.98
9141;BME280;46330;50.822;7.126;2023-11-19T09:22:42;100508.53;;;14.14;82.28
9141;BME280;46330;50.822;7.126;2023-11-19T09:25:10;100504.72;;;14.47;82.29
9141;BME280;46330;50.822;7.126;2023-11-19T09:27:43;100490.19;;;14.82;81.15
9141;BME280;46330;50.822;7.126;2023-11-19T09:30:12;100501.47;;;14.86;80.63
9141;BME280;46330;50.822;7.126;2023-11-19T09:32:41;100506.19;;;14.78;79.76
9141;BME280;46330;50.822;7.126;2023-11-19T09:35:10;100504.94;;;14.65;78.84
9141;BME280;46330;50.822;7.126;2023-11-19T09:37:40;100494.78;;;14.54;78.42
9141;BME280;46330;50.822;7.126;2023-11-19T09:40:08;100504.63;;;14.50;79.38
9141;BME280;46330;50.822;7.126;2023-11-19T09:42:43;100501.66;;;14.58;76.55
9141;BME280;46330;50.822;7.126;2023-11-19T09:45:14;100503.69;;;14.27;79.29
9141;BME280;46330;50.822;7.126;2023-11-19T09:47:45;100493.44;;;14.44;78.88
9141;BME280;46330;50.822;7.126;2023-11-19T09:50:16;100492.59;;;14.43;78.15
9141;BME280;46330;50.822;7.126;2023-11-19T09:52:47;100497.13;;;14.85;77.56
9141;BME280;46330;50.822;7.126;2023-11-19T09:55:15;100497.28;;;15.25;76.88
9141;BME280;46330;50.822;7.126;2023-11-19T09:57:44;100489.25;;;15.50;75.04
9141;BME280;46330;50.822;7.126;2023-11-19T10:00:14;100506.38;;;15.38;75.89
9141;BME280;46330;50.822;7.126;2023-11-19T10:02:44;100509.94;;;14.94;74.32
9141;BME280;46330;50.822;7.126;2023-11-19T10:05:14;100505.88;;;15.29;74.27
9141;BME280;46330;50.822;7.126;2023-11-19T10:07:43;100493.91;;;15.64;71.82
9141;BME280;46330;50.822;7.126;2023-11-19T10:10:12;100490.94;;;15.29;71.93
9141;BME280;46330;50.822;7.126;2023-11-19T10:12:45;100494.56;;;15.48;71.76
9141;BME280;46330;50.822;7.126;2023-11-19T10:15:21;100496.56;;;15.20;72.80
9141;BME280;46330;50.822;7.126;2023-11-19T10:17:52;100489.94;;;14.88;75.59
9141;BME280;46330;50.822;7.126;2023-11-19T10:20:22;100477.88;;;14.61;75.15
9141;BME280;46330;50.822;7.126;2023-11-19T10:22:52;100485.56;;;14.44;76.56
9141;BME280;46330;50.822;7.126;2023-11-19T10:25:22;100486.22;;;14.26;77.41
9141;BME280;46330;50.822;7.126;2023-11-19T10:27:51;100488.84;;;14.26;78.64
9141;BME280;46330;50.822;7.126;2023-11-19T10:30:21;100476.28;;;14.32;77.90
9141;BME280;46330;50.822;7.126;2023-11-19T10:33:06;100481.31;;;14.40;77.10
9141;BME280;46330;50.822;7.126;2023-11-19T10:35:35;100478.91;;;14.34;81.32
9141;BME280;46330;50.822;7.126;2023-11-19T10:38:13;100482.84;;;13.97;79.59
9141;BME280;46330;50.822;7.126;2023-11-19T10:40:42;100469.16;;;14.13;79.39
9141;BME280;46330;50.822;7.126;2023-11-19T10:43:10;100474.75;;;14.04;80.69
9141;BME280;46330;50.822;7.126;2023-11-19T10:45:39;100483.75;;;13.96;81.96
9141;BME280;46330;50.822;7.126;2023-11-19T10:48:08;100485.00;;;13.86;82.06
9141;BME280;46330;50.822;7.126;2023-11-19T10:50:38;100475.59;;;13.79;81.70
9141;BME280;46330;50.822;7.126;2023-11-19T10:53:07;100472.16;;;13.77;81.46
9141;BME280;46330;50.822;7.126;2023-11-19T10:55:37;100477.75;;;13.68;80.47
9141;BME280;46330;50.822;7.126;2023-11-19T10:58:06;100471.31;;;13.77;81.06
9141;BME280;46330;50.822;7.126;2023-11-19T11:00:39;100483.13;;;13.90;81.32
9141;BME280;46330;50.822;7.126;2023-11-19T11:03:19;100469.75;;;13.96;78.35
9141;BME280;46330;50.822;7.126;2023-11-19T11:05:48;100468.66;;;14.01;78.40
9141;BME280;46330;50.822;7.126;2023-11-19T11:08:17;100465.25;;;13.99;78.16
9141;BME280;46330;50.822;7.126;2023-11-19T11:10:48;100470.72;;;13.93;78.09
9141;BME280;46330;50.822;7.126;2023-11-19T11:13:23;100473.13;;;13.99;78.44
9141;BME280;46330;50.822;7.126;2023-11-19T11:15:52;100460.56;;;14.08;79.86
9141;BME280;46330;50.822;7.126;2023-11-19T11:18:23;100467.88;;;13.99;78.59
9141;BME280;46330;50.822;7.126;2023-11-19T11:20:53;100478.94;;;13.84;79.26
9141;BME280;46330;50.822;7.126;2023-11-19T11:23:56;100464.81;;;13.87;78.79
9141;BME280;46330;50.822;7.126;2023-11-19T11:26:39;100472.16;;;13.77;79.77
9141;BME280;46330;50.822;7.126;2023-11-19T11:29:16;100481.56;;;13.84;79.53
9141;BME280;46330;50.822;7.126;2023-11-19T11:31:57;100475.66;;;13.78;79.27
9141;BME280;46330;50.822;7.126;2023-11-19T11:34:43;100487.41;;;13.68;77.59
9141;BME280;46330;50.822;7.126;2023-11-19T11:37:18;100467.59;;;13.82;77.34
9141;BME280;46330;50.822;7.126;2023-11-19T11:39:46;100475.25;;;13.64;76.88
9141;BME280;46330;50.822;7.126;2023-11-19T11:42:36;100472.13;;;13.54;78.08
9141;BME280;46330;50.822;7.126;2023-11-19T11:45:05;100486.72;;;13.36;78.42
9141;BME280;46330;50.822;7.126;2023-11-19T11:48:08;100498.00;;;13.14;81.62
9141;BME280;46330;50.822;7.126;2023-11-19T11:50:50;100480.63;;;13.61;83.54
9141;BME280;46330;50.822;7.126;2023-11-19T11:53:20;100475.84;;;13.47;85.27
9141;BME280;46330;50.822;7.126;2023-11-19T11:55:57;100468.63;;;13.54;83.70
9141;BME280;46330;50.822;7.126;2023-11-19T11:58:31;100460.31;;;13.41;82.48
9141;BME280;46330;50.822;7.126;2023-11-19T12:01:02;100456.72;;;13.43;83.92
9141;BME280;46330;50.822;7.126;2023-11-19T12:03:33;100457.13;;;13.31;83.33
9141;BME280;46330;50.822;7.126;2023-11-19T12:06:03;100452.34;;;13.42;83.15
9141;BME280;46330;50.822;7.126;2023-11-19T12:08:34;100454.38;;;13.85;82.73
9141;BME280;46330;50.822;7.126;2023-11-19T12:11:19;100457.25;;;14.02;79.97
9141;BME280;46330;50.822;7.126;2023-11-19T12:13:54;100452.69;;;14.31;79.93
9141;BME280;46330;50.822;7.126;2023-11-19T12:16:25;100439.06;;;14.20;77.89
9141;BME280;46330;50.822;7.126;2023-11-19T12:18:56;100446.13;;;14.42;76.41
9141;BME280;46330;50.822;7.126;2023-11-19T12:21:31;100444.91;;;14.51;76.40
9141;BME280;46330;50.822;7.126;2023-11-19T12:24:00;100438.63;;;14.32;78.00
9141;BME280;46330;50.822;7.126;2023-11-19T12:26:35;100427.19;;;14.10;80.02
9141;BME280;46330;50.822;7.126;2023-11-19T12:29:04;100429.09;;;13.81;80.15
9141;BME280;46330;50.822;7.126;2023-11-19T12:31:35;100436.22;;;13.78;81.12
9141;BME280;46330;50.822;7.126;2023-11-19T12:34:09;100434.50;;;13.77;82.04
9141;BME280;46330;50.822;7.126;2023-11-19T12:36:42;100428.13;;;13.59;82.03
9141;BME280;46330;50.822;7.126;2023-11-19T12:39:10;100428.47;;;13.50;81.38
9141;BME280;46330;50.822;7.126;2023-11-19T12:41:53;100416.72;;;13.60;82.11
9141;BME280;46330;50.822;7.126;2023-11-19T12:44:22;100413.16;;;13.61;81.91
9141;BME280;46330;50.822;7.126;2023-11-19T12:47:01;100416.22;;;13.74;83.56
9141;BME280;46330;50.822;7.126;2023-11-19T12:49:29;100412.50;;;13.79;82.67
9141;BME280;46330;50.822;7.126;2023-11-19T12:51:59;100412.91;;;13.69;82.12
9141;BME280;46330;50.822;7.126;2023-11-19T12:54:35;100410.38;;;13.66;81.92
9141;BME280;46330;50.822;7.126;2023-11-19T12:57:03;100412.09;;;13.67;81.63
9141;BME280;46330;50.822;7.126;2023-11-19T12:59:33;100409.38;;;13.70;81.49
9141;BME280;46330;50.822;7.126;2023-11-19T13:02:01;100410.59;;;13.60;82.00
9141;BME280;46330;50.822;7.126;2023-11-19T13:04:33;100417.94;;;13.50;81.81
9141;BME280;46330;50.822;7.126;2023-11-19T13:07:02;100417.88;;;13.52;83.77
9141;BME280;46330;50.822;7.126;2023-11-19T13:09:32;100419.34;;;13.60;82.13
9141;BME280;46330;50.822;7.126;2023-11-19T13:12:12;100421.34;;;13.77;80.59